Delta Virtual Airport Information Service

New York John F. Kennedy International Airport

ICAO: KJFK Country: United States
Latitude: 40.6398 Longitude: -73.7789
Latest Arrival : DAL2 (EGLL-KJFK) Latest Departure : JBU1083 (KJFK-KMCO)


WX CaptureLIVE
Data provided by noaa.gov | Fetched at 09:32:59

METAR : KJFK 041351Z 13015G23KT 9SM FEW012 BKN019 BKN028 OVC150 27/24 A2991 RMK AO2 SLP126 T02670239

TAF : KJFK 041305Z 0413/0518 14013G20KT P6SM VCSH SCT009 BKN015 FM041500 15017G26KT 6SM -SHRA BR SCT008 OVC015 FM041700 14028G44KT 2SM +SHRA BR OVC015 WS020/15055KT FM041900 19039G53KT 4SM -SHRA BR SCT025 BKN035 WS020/19065KT FM042200 24029G38KT P6SM SCT035 BKN250 FM050300 23016KT P6SM SCT250 FM050800 22007KT P6SM SCT250 FM051400 27008KT P6SM FEW050 SCT250


Runway Data for KJFK
Data provided by openaviationdata.com

Runway ID Mag Var Hdg Length Elevation Surface ILS Freq ILS Id ILS Slope
04L -14 44° 11353 ft 13 ft Asphalt 110.9 IHIQ 3
04R -14 44° 8401 ft 13 ft Asphalt 109.5 IJFK 3
13L -14 134° 9992 ft 13 ft Asphalt 111.5 ITLK 3
13R -14 134° 14564 ft 13 ft Asphalt -- -- --
22L -14 224° 8401 ft 13 ft Asphalt 110.9 IIWY 3
22R -14 224° 11353 ft 13 ft Asphalt 109.5 IJOC 3
31L -14 314° 14564 ft 13 ft Asphalt 111.35 IMOH 3
31R -14 314° 9992 ft 13 ft Asphalt 111.5 IRTH 3

New York John F. Kennedy International Airport, United States
Use only for reference purposes



Not for navigational purposes.